createdAt,value
2018-10-03T00:01:10.168Z,2.00
2018-10-03T00:04:13.691Z,2.58
2018-10-03T00:07:17.177Z,2.05
2018-10-03T00:10:20.697Z,2.20
2018-10-03T00:13:24.278Z,2.30
2018-10-03T00:16:27.783Z,2.00
2018-10-03T00:19:31.302Z,2.12
2018-10-03T00:22:34.864Z,2.30
2018-10-03T00:25:38.271Z,1.90
2018-10-03T00:28:41.685Z,2.00
2018-10-03T00:31:45.099Z,1.98
2018-10-03T00:34:48.589Z,1.77
2018-10-03T00:37:52.082Z,2.10
2018-10-03T00:40:55.595Z,2.15
2018-10-03T00:43:59.004Z,2.00
2018-10-03T00:47:02.483Z,2.37
2018-10-03T00:50:05.954Z,2.55
2018-10-03T00:53:09.417Z,1.80
2018-10-03T00:56:12.911Z,2.80
2018-10-03T00:59:16.420Z,2.00
2018-10-03T01:02:19.948Z,2.10
2018-10-03T01:05:23.422Z,2.12
2018-10-03T01:08:26.905Z,2.10
2018-10-03T01:11:30.300Z,2.05
2018-10-03T01:14:33.737Z,2.30
2018-10-03T01:17:37.305Z,2.12
2018-10-03T01:20:40.724Z,2.33
2018-10-03T01:23:44.353Z,2.60
2018-10-03T01:26:47.820Z,2.40
2018-10-03T01:29:51.198Z,2.30
2018-10-03T01:32:54.614Z,2.35
2018-10-03T01:35:58.016Z,2.42
2018-10-03T01:39:01.435Z,2.25
2018-10-03T01:42:04.984Z,2.95
2018-10-03T01:45:08.482Z,2.52
2018-10-03T01:48:11.999Z,2.65
2018-10-03T01:51:15.451Z,2.50
2018-10-03T01:54:18.920Z,2.60
2018-10-03T01:57:22.388Z,2.58
2018-10-03T02:00:25.857Z,2.25
2018-10-03T02:03:29.327Z,2.50
2018-10-03T02:06:32.769Z,2.98
2018-10-03T02:09:36.232Z,2.55
2018-10-03T02:12:39.643Z,2.72
2018-10-03T02:15:43.064Z,2.85
2018-10-03T02:18:46.568Z,2.40
2018-10-03T02:21:49.948Z,2.17
2018-10-03T02:24:53.348Z,2.60
2018-10-03T02:27:56.742Z,2.72
2018-10-03T02:31:00.157Z,2.77
2018-10-03T02:34:03.954Z,2.62
2018-10-03T02:37:07.350Z,2.47
2018-10-03T02:40:10.430Z,2.00
2018-10-03T02:43:13.845Z,2.45
2018-10-03T02:46:17.247Z,1.95
2018-10-03T02:49:20.650Z,1.77
2018-10-03T02:52:24.049Z,1.77
2018-10-03T02:55:27.442Z,1.67
2018-10-03T02:58:30.853Z,1.65
2018-10-03T03:01:34.326Z,1.77
2018-10-03T03:04:37.747Z,2.12
2018-10-03T03:07:41.163Z,1.77
2018-10-03T03:10:44.569Z,1.40
2018-10-03T03:13:47.956Z,1.65
2018-10-03T03:16:51.420Z,1.62
2018-10-03T03:19:54.885Z,1.67
2018-10-03T03:22:58.252Z,1.90
2018-10-03T03:26:01.628Z,1.77
2018-10-03T03:29:05.060Z,1.65
2018-10-03T03:32:08.447Z,2.10
2018-10-03T03:35:12.152Z,1.65
2018-10-03T03:38:15.553Z,1.80
2018-10-03T03:41:18.951Z,2.00
2018-10-03T03:44:22.364Z,2.10
2018-10-03T03:47:25.761Z,1.90
2018-10-03T03:50:29.790Z,1.82
2018-10-03T03:53:33.178Z,2.10
2018-10-03T03:56:36.566Z,1.90
2018-10-03T03:59:40.052Z,1.95
2018-10-03T04:02:43.474Z,1.90
2018-10-03T04:05:46.865Z,1.65
2018-10-03T04:08:50.282Z,2.17
2018-10-03T04:11:53.686Z,2.25
2018-10-03T04:14:57.046Z,1.90
2018-10-03T04:18:00.544Z,2.02
2018-10-03T04:21:03.999Z,2.10
2018-10-03T04:24:09.836Z,2.40
2018-10-03T04:27:13.221Z,1.90
2018-10-03T04:30:16.646Z,2.40
2018-10-03T04:33:20.012Z,2.23
2018-10-03T04:36:23.594Z,2.98
2018-10-03T04:39:27.036Z,2.60
2018-10-03T04:42:30.544Z,2.22
2018-10-03T04:45:34.025Z,2.08
2018-10-03T04:48:37.636Z,1.65
2018-10-03T04:51:42.213Z,2.00
2018-10-03T04:54:45.826Z,2.30
2018-10-03T04:57:49.276Z,1.72
2018-10-03T05:00:52.841Z,2.00
2018-10-03T05:03:56.270Z,1.80
2018-10-03T05:06:59.789Z,2.00
2018-10-03T05:10:03.338Z,1.70
2018-10-03T05:13:06.882Z,2.00
2018-10-03T05:16:10.397Z,1.80
2018-10-03T05:19:13.918Z,1.70
2018-10-03T05:22:17.388Z,1.85
2018-10-03T05:25:20.907Z,1.92
2018-10-03T05:28:24.457Z,1.85
2018-10-03T05:31:27.947Z,1.90
2018-10-03T05:34:31.417Z,1.85
2018-10-03T05:37:35.348Z,2.37
2018-10-03T05:40:38.851Z,1.60
2018-10-03T05:43:42.321Z,2.45
2018-10-03T05:46:45.819Z,1.70
2018-10-03T05:49:49.329Z,1.80
2018-10-03T05:52:52.844Z,1.77
2018-10-03T05:55:56.334Z,1.75
2018-10-03T05:58:59.924Z,1.70
2018-10-03T06:02:03.613Z,1.80
2018-10-03T06:05:07.385Z,1.90
2018-10-03T06:08:10.851Z,1.92
2018-10-03T06:11:14.368Z,2.15
2018-10-03T06:14:18.153Z,2.12
2018-10-03T06:17:21.690Z,1.90
2018-10-03T06:20:25.176Z,2.12
2018-10-03T06:23:28.791Z,2.30
2018-10-03T06:26:32.278Z,2.40
2018-10-03T06:29:35.917Z,1.90
2018-10-03T06:32:39.398Z,1.90
2018-10-03T06:35:42.892Z,2.27
2018-10-03T06:38:46.470Z,2.30
2018-10-03T06:41:50.087Z,2.67
2018-10-03T06:44:54.578Z,2.30
2018-10-03T06:47:59.667Z,2.60
2018-10-03T06:51:03.147Z,2.73
2018-10-03T06:54:06.373Z,2.80
2018-10-03T06:57:10.105Z,2.90
2018-10-03T07:00:13.620Z,2.85
2018-10-03T07:03:17.352Z,2.60
2018-10-03T07:06:20.797Z,2.65
2018-10-03T07:09:24.295Z,2.42
2018-10-03T07:12:27.985Z,2.80
2018-10-03T07:15:31.522Z,2.58
2018-10-03T07:18:35.049Z,2.30
2018-10-03T07:21:39.603Z,2.22
2018-10-03T07:24:43.107Z,2.30
2018-10-03T07:27:46.561Z,2.40
2018-10-03T07:30:50.066Z,2.33
2018-10-03T07:33:53.527Z,2.70
2018-10-03T07:36:56.925Z,2.57
2018-10-03T07:40:00.441Z,2.73
2018-10-03T07:43:03.838Z,2.63
2018-10-03T07:46:07.505Z,2.67
2018-10-03T07:49:10.976Z,2.60
2018-10-03T07:52:14.438Z,2.50
2018-10-03T07:55:18.055Z,2.90
2018-10-03T07:58:21.592Z,2.98
2018-10-03T08:01:25.108Z,3.20
2018-10-03T08:04:28.542Z,2.93
2018-10-03T08:07:32.003Z,3.25
2018-10-03T08:10:35.587Z,2.75
2018-10-03T08:13:39.131Z,2.75
2018-10-03T08:16:42.556Z,2.95
2018-10-03T08:19:45.963Z,3.10
2018-10-03T08:22:49.381Z,3.40
2018-10-03T08:25:52.864Z,3.30
2018-10-03T08:28:56.294Z,3.40
2018-10-03T08:31:59.836Z,3.58
2018-10-03T08:35:03.329Z,3.45
2018-10-03T08:38:06.783Z,3.10
2018-10-03T08:41:10.258Z,3.05
2018-10-03T08:44:13.676Z,3.27
2018-10-03T08:47:17.076Z,3.33
2018-10-03T08:50:20.492Z,3.27
2018-10-03T08:53:24.232Z,3.53
2018-10-03T08:56:27.742Z,3.60
2018-10-03T08:59:31.158Z,3.33
2018-10-03T09:02:34.615Z,3.07
2018-10-03T09:05:37.968Z,3.20
2018-10-03T09:08:41.383Z,3.40
2018-10-03T09:11:44.811Z,3.92
2018-10-03T09:14:48.264Z,3.50
2018-10-03T09:17:51.666Z,3.87
2018-10-03T09:20:55.101Z,3.65
2018-10-03T09:23:58.489Z,3.98
2018-10-03T09:27:01.860Z,3.60
2018-10-03T09:30:05.464Z,3.60
2018-10-03T09:33:09.208Z,3.58
2018-10-03T09:36:12.819Z,4.15
2018-10-03T09:39:16.175Z,3.77
2018-10-03T09:42:19.975Z,3.87
2018-10-03T09:45:23.403Z,3.90
2018-10-03T09:48:26.797Z,3.98
2018-10-03T09:51:30.191Z,4.00
2018-10-03T09:54:33.591Z,4.23
2018-10-03T09:57:37.067Z,3.93
2018-10-03T10:00:45.817Z,4.20
2018-10-03T10:03:49.218Z,3.87
2018-10-03T10:06:53.716Z,3.52
2018-10-03T10:09:57.192Z,3.77
2018-10-03T10:13:00.689Z,3.83
2018-10-03T10:16:04.086Z,4.28
2018-10-03T10:19:07.526Z,4.37
2018-10-03T10:22:11.108Z,3.73
2018-10-03T10:25:14.494Z,3.72
2018-10-03T10:28:17.860Z,3.92
2018-10-03T10:31:21.295Z,3.30
2018-10-03T10:34:24.664Z,3.50
2018-10-03T10:37:28.057Z,3.80
2018-10-03T10:40:31.764Z,3.65
2018-10-03T10:43:35.273Z,4.75
2018-10-03T10:46:38.840Z,3.70
2018-10-03T10:49:42.374Z,3.35
2018-10-03T10:52:46.102Z,3.45
2018-10-03T10:55:49.703Z,4.00
2018-10-03T10:58:53.295Z,3.80
2018-10-03T11:01:56.930Z,4.07
2018-10-03T11:05:00.402Z,3.63
2018-10-03T11:08:04.015Z,3.60
2018-10-03T11:11:07.576Z,4.07
2018-10-03T11:14:11.116Z,3.87
2018-10-03T11:17:14.738Z,4.07
2018-10-03T11:20:18.225Z,3.52
2018-10-03T11:23:21.745Z,3.73
2018-10-03T11:26:25.214Z,3.47
2018-10-03T11:29:28.838Z,3.25
2018-10-03T11:32:32.560Z,3.40
2018-10-03T11:35:36.042Z,3.30
2018-10-03T11:38:39.624Z,3.17
2018-10-03T11:41:43.255Z,3.30
2018-10-03T11:44:46.840Z,3.62
2018-10-03T11:47:50.351Z,3.73
2018-10-03T11:50:53.860Z,3.70
2018-10-03T11:53:57.400Z,3.80
2018-10-03T11:57:02.055Z,3.98
2018-10-03T12:00:05.675Z,4.15
2018-10-03T12:03:09.347Z,3.70
2018-10-03T12:06:13.159Z,3.75
2018-10-03T12:09:16.708Z,3.80
2018-10-03T12:12:20.217Z,3.75
2018-10-03T12:15:23.722Z,3.58
2018-10-03T12:18:27.212Z,3.70
2018-10-03T12:21:31.055Z,3.95
2018-10-03T12:24:34.724Z,3.77
2018-10-03T12:27:38.444Z,3.80
2018-10-03T12:30:41.959Z,4.28
2018-10-03T12:33:45.553Z,4.00
2018-10-03T12:36:48.940Z,3.75
2018-10-03T12:39:52.477Z,4.03
2018-10-03T12:42:55.953Z,4.10
2018-10-03T12:45:59.486Z,3.97
2018-10-03T12:49:02.961Z,3.75
2018-10-03T12:52:07.306Z,3.77
2018-10-03T12:55:11.002Z,3.67
2018-10-03T12:58:14.702Z,3.15
2018-10-03T13:01:18.286Z,3.20
2018-10-03T13:04:21.698Z,3.57
2018-10-03T13:07:25.225Z,3.37
2018-10-03T13:10:29.451Z,3.35
2018-10-03T13:13:32.952Z,3.20
2018-10-03T13:16:36.604Z,3.40
2018-10-03T13:19:40.044Z,2.80
2018-10-03T13:22:43.863Z,3.30
2018-10-03T13:25:47.506Z,3.47
2018-10-03T13:28:50.941Z,2.97
2018-10-03T13:31:54.371Z,3.97
2018-10-03T13:34:57.948Z,3.37
2018-10-03T13:38:01.403Z,3.43
2018-10-03T13:41:05.001Z,4.07
2018-10-03T13:44:08.628Z,3.20
2018-10-03T13:47:12.094Z,3.12
2018-10-03T13:50:15.582Z,3.13
2018-10-03T13:53:19.127Z,3.60
2018-10-03T13:56:22.669Z,2.93
2018-10-03T13:59:26.165Z,2.80
2018-10-03T14:02:29.604Z,3.47
2018-10-03T14:05:33.239Z,2.90
2018-10-03T14:08:36.776Z,3.05
2018-10-03T14:11:40.427Z,2.97
2018-10-03T14:15:47.133Z,3.08
2018-10-03T14:18:50.593Z,3.47
2018-10-03T14:21:54.572Z,3.30
2018-10-03T14:24:58.077Z,3.30
2018-10-03T14:28:01.504Z,3.00
2018-10-03T14:31:04.974Z,3.40
2018-10-03T14:34:08.441Z,3.40
2018-10-03T14:37:11.931Z,3.37
2018-10-03T14:40:16.387Z,3.03
2018-10-03T14:43:19.921Z,3.57
2018-10-03T14:46:23.403Z,3.02
2018-10-03T14:49:26.822Z,3.00
2018-10-03T14:52:30.312Z,2.98
2018-10-03T14:55:33.802Z,3.37
2018-10-03T14:58:37.561Z,3.23
2018-10-03T15:01:40.993Z,2.90
2018-10-03T15:04:44.349Z,3.07
2018-10-03T15:07:47.861Z,3.27
2018-10-03T15:10:51.281Z,2.83
2018-10-03T15:13:54.779Z,3.17
2018-10-03T15:16:58.168Z,2.93
2018-10-03T15:20:01.722Z,2.90
2018-10-03T15:23:05.212Z,3.00
2018-10-03T15:26:08.958Z,2.90
2018-10-03T15:29:12.437Z,3.00
2018-10-03T15:32:15.957Z,2.60
2018-10-03T15:35:19.462Z,2.87
2018-10-03T15:38:22.912Z,2.87
2018-10-03T15:41:26.466Z,3.00
2018-10-03T15:44:30.054Z,2.60
2018-10-03T15:47:33.548Z,2.67
2018-10-03T15:50:37.235Z,2.57
2018-10-03T15:53:40.754Z,3.20
2018-10-03T15:56:45.302Z,2.70
2018-10-03T15:59:48.806Z,3.00
2018-10-03T16:02:52.358Z,4.70
2018-10-03T16:05:56.633Z,7.83
2018-10-03T16:09:00.201Z,2.67
2018-10-03T16:12:04.269Z,3.10
2018-10-03T16:15:08.115Z,2.75
2018-10-03T16:18:12.771Z,2.90
2018-10-03T16:21:16.365Z,2.80
2018-10-03T16:24:20.023Z,3.40
2018-10-03T16:27:24.056Z,3.40
2018-10-03T16:30:27.737Z,3.60
2018-10-03T16:33:31.343Z,3.13
2018-10-03T16:36:35.076Z,2.70
2018-10-03T16:39:39.475Z,2.50
2018-10-03T16:42:43.119Z,2.90
2018-10-03T16:45:46.727Z,2.77
2018-10-03T16:48:50.354Z,2.93
2018-10-03T16:51:53.843Z,2.63
2018-10-03T16:54:57.693Z,2.55
2018-10-03T16:58:01.313Z,2.50
2018-10-03T17:01:04.888Z,2.55
2018-10-03T17:04:09.425Z,2.77
2018-10-03T17:07:12.952Z,2.65
2018-10-03T17:10:16.434Z,2.92
2018-10-03T17:13:19.995Z,2.95
2018-10-03T17:16:23.615Z,2.73
2018-10-03T17:19:27.160Z,3.40
2018-10-03T17:22:30.640Z,3.60
2018-10-03T17:25:34.159Z,3.08
2018-10-03T17:28:37.632Z,3.90
2018-10-03T17:31:42.253Z,2.73
2018-10-03T17:34:45.760Z,3.05
2018-10-03T17:37:49.362Z,3.37
2018-10-03T17:40:52.785Z,5.15
2018-10-03T17:43:56.571Z,3.80
2018-10-03T17:47:00.063Z,4.57
2018-10-03T17:50:03.596Z,4.53
2018-10-03T17:53:07.226Z,3.87
2018-10-03T17:56:10.684Z,4.07
2018-10-03T17:59:14.185Z,3.40
2018-10-03T18:02:17.593Z,3.80
2018-10-03T18:05:21.096Z,2.93
2018-10-03T18:08:24.495Z,3.10
2018-10-03T18:11:28.000Z,3.33
2018-10-03T18:14:31.553Z,3.00
2018-10-03T18:17:35.162Z,3.12
2018-10-03T18:20:38.739Z,3.30
2018-10-03T18:23:42.337Z,3.08
2018-10-03T18:26:45.876Z,3.30
2018-10-03T18:29:49.323Z,3.67
2018-10-03T18:32:52.920Z,3.60
2018-10-03T18:35:56.457Z,7.07
2018-10-03T18:38:59.961Z,5.13
2018-10-03T18:42:03.529Z,5.20
2018-10-03T18:45:07.118Z,4.63
2018-10-03T18:48:10.577Z,4.63
2018-10-03T18:51:14.084Z,7.53
2018-10-03T18:54:17.623Z,8.97
2018-10-03T18:57:21.090Z,5.80
2018-10-03T19:00:24.548Z,4.90
2018-10-03T19:03:27.948Z,5.50
2018-10-03T19:06:31.456Z,5.23
2018-10-03T19:09:34.950Z,5.17
2018-10-03T19:12:38.965Z,5.13
2018-10-03T19:15:42.419Z,4.70
2018-10-03T19:18:46.823Z,4.27
2018-10-03T19:21:50.313Z,5.00
2018-10-03T19:24:53.832Z,4.80
2018-10-03T19:27:57.567Z,4.80
2018-10-03T19:31:01.149Z,5.03
2018-10-03T19:34:04.710Z,4.97
2018-10-03T19:37:08.137Z,5.33
2018-10-03T19:40:11.717Z,5.47
2018-10-03T19:43:15.137Z,5.42
2018-10-03T19:46:18.528Z,5.37
2018-10-03T19:49:21.926Z,5.97
2018-10-03T19:52:25.447Z,5.67
2018-10-03T19:55:28.937Z,5.40
2018-10-03T19:58:32.772Z,5.78
2018-10-03T20:01:36.353Z,6.30
2018-10-03T20:04:39.838Z,6.57
2018-10-03T20:07:43.374Z,8.77
2018-10-03T20:10:46.933Z,8.93
2018-10-03T20:13:50.368Z,8.30
2018-10-03T20:16:53.765Z,8.03
2018-10-03T20:19:57.315Z,7.37
2018-10-03T20:23:00.805Z,7.10
2018-10-03T20:26:04.309Z,6.70
2018-10-03T20:29:07.799Z,7.00
2018-10-03T20:32:11.343Z,6.07
2018-10-03T20:35:14.762Z,5.60
2018-10-03T20:38:18.147Z,6.13
2018-10-03T20:41:21.630Z,6.03
2018-10-03T20:44:25.176Z,7.80
2018-10-03T20:47:28.570Z,7.77
2018-10-03T20:50:32.046Z,7.63
2018-10-03T20:53:35.559Z,6.60
2018-10-03T20:56:39.205Z,7.30
2018-10-03T20:59:42.581Z,7.33
2018-10-03T21:02:46.315Z,7.30
2018-10-03T21:05:49.744Z,6.93
2018-10-03T21:08:53.300Z,6.23
2018-10-03T21:11:56.595Z,6.23
2018-10-03T21:14:59.964Z,6.03
2018-10-03T21:18:03.480Z,6.80
2018-10-03T21:21:07.031Z,6.23
2018-10-03T21:24:10.515Z,7.50
2018-10-03T21:27:13.981Z,6.63
2018-10-03T21:30:17.512Z,6.60
2018-10-03T21:33:20.941Z,6.03
2018-10-03T21:36:24.384Z,7.03
2018-10-03T21:39:27.892Z,6.00
2018-10-03T21:42:31.455Z,5.70
2018-10-03T21:45:34.987Z,5.57
2018-10-03T21:48:38.562Z,5.87
2018-10-03T21:51:42.007Z,5.63
2018-10-03T21:54:45.493Z,5.43
2018-10-03T21:57:49.037Z,4.97
2018-10-03T22:00:52.586Z,5.23
2018-10-03T22:03:56.120Z,5.10
2018-10-03T22:06:59.618Z,5.23
2018-10-03T22:10:03.189Z,4.80
2018-10-03T22:13:07.035Z,4.50
2018-10-03T22:16:10.543Z,4.90
2018-10-03T22:19:14.096Z,5.13
2018-10-03T22:22:17.534Z,4.10
2018-10-03T22:25:21.046Z,4.63
2018-10-03T22:28:25.942Z,5.23
2018-10-03T22:31:29.461Z,4.50
2018-10-03T22:34:33.035Z,4.77
2018-10-03T22:37:36.697Z,4.80
2018-10-03T22:40:40.192Z,5.43
2018-10-03T22:43:43.774Z,5.37
2018-10-03T22:46:47.318Z,5.47
2018-10-03T22:49:50.820Z,5.50
2018-10-03T22:52:55.422Z,5.23
2018-10-03T22:55:59.001Z,5.30
2018-10-03T22:59:02.434Z,5.57
2018-10-03T23:02:05.953Z,5.10
2018-10-03T23:05:09.462Z,5.23
2018-10-03T23:08:12.979Z,4.87
2018-10-03T23:11:16.465Z,4.90
2018-10-03T23:14:20.073Z,5.40
2018-10-03T23:17:23.534Z,5.63
2018-10-03T23:20:26.955Z,6.00
2018-10-03T23:23:30.443Z,5.27
2018-10-03T23:26:33.862Z,6.00
2018-10-03T23:29:37.360Z,6.00
2018-10-03T23:32:40.890Z,5.30
2018-10-03T23:35:44.622Z,5.10
2018-10-03T23:38:48.055Z,5.53
2018-10-03T23:41:51.535Z,5.43
2018-10-03T23:44:54.955Z,5.90
2018-10-03T23:47:58.361Z,5.73
2018-10-03T23:51:01.859Z,5.43
2018-10-03T23:54:05.262Z,5.40
2018-10-03T23:57:08.661Z,5.43
